Terminal Aerodrome Forecast
Issued by NWS Louisville, KY

Home | Current Version | Previous Version | Text Only | Print | Product List | Glossary On
Versions: 1 2 3 4 5 6 7 8 9 10 11 12
000
FTUS43 KLMK 041700
TAFLEX
TAF
KLEX 041733Z 0418/0518 VRB04KT P6SM SCT018 BKN040
     FM050900 VRB03KT 4SM BR SCT018 BKN040
     FM051400 VRB03KT P6SM BKN040=

USA.gov is the U.S. government's official web portal to all federal, state and local government web resources and services.